This demonstration page uses our WeatherBlox Daily Observations layout. Learn more.

38.89511, -77.03637

Hourly Observations for March 19, 2015

Temp ( °F °C ) Dew Point ( °F °C ) Humidity (%) Winds ( mph kmh ) Pressure ( in mb ) Visibility ( mi km ) Precip ( " mm )
12:52 am 00:52 Partly Cloudy 43 6 21 -6 42 42 Calm 30.24 1024 10 16.09344 0 0
1:52 am 01:52 Mostly Cloudy 43 6 14 -10 31 31 WNW 5 7 30.24 1024 10 16.09344 0 0
2:52 am 02:52 Mostly Cloudy 43 6 23 -5 46 46 Calm 30.27 1025 10 16.09344 0 0
3:52 am 03:52 Cloudy 39 4 21 -6 48 48 SW 3 6 30.24 1024 10 16.09344 0 0
4:52 am 04:52 Mostly Cloudy 41 5 25 -4 53 53 Calm 30.27 1025 10 16.09344 0 0
5:52 am 05:52 Mostly Cloudy 39 4 21 -6 48 48 Calm 30.27 1025 10 16.09344 0 0
6:52 am 06:52 Mostly Cloudy 43 6 25 -4 49 49 Calm 30.3 1026 10 16.09344 0 0
7:52 am 07:52 Mostly Cloudy 41 5 25 -4 53 53 NE 3 6 30.33 1027 10 16.09344 0 0
8:52 am 08:52 Cloudy 43 6 23 -5 46 46 NE 8 13 30.33 1027 10 16.09344 0 0
9:52 am 09:52 Cloudy 45 7 19 -7 37 37 ENE 9 15 30.36 1028 10 16.09344 0 0
10:52 am 10:52 Cloudy 48 9 19 -7 32 32 ENE 7 11 30.36 1028 10 16.09344 0 0
11:52 am 11:52 Cloudy 46 8 19 -7 34 34 NNE 5 7 30.36 1028 10 16.09344 0 0
12:52 pm 12:52 Cloudy 48 9 18 -8 29 29 Calm 30.36 1028 10 16.09344 0 0
1:52 pm 13:52 Cloudy 50 10 21 -6 32 32 SSE 6 9 30.33 1027 10 16.09344 0 0
2:52 pm 14:52 Cloudy 52 11 19 -7 28 28 E 3 6 30.3 1026 10 16.09344 0 0
3:52 pm 15:52 Cloudy 52 11 19 -7 28 28 SE 3 6 30.27 1025 10 16.09344 0 0
4:52 pm 16:52 Cloudy 52 11 19 -7 28 28 S 7 11 30.27 1025 10 16.09344 0 0
5:52 pm 17:52 Cloudy 52 11 19 -7 28 28 S 3 6 30.27 1025 10 16.09344 0 0
6:52 pm 18:52 Cloudy 48 9 25 -4 40 40 SSE 8 13 30.3 1026 10 16.09344 0 0
7:52 pm 19:52 Cloudy 46 8 23 -5 40 40 SE 8 13 30.3 1026 10 16.09344 0 0
8:52 pm 20:52 Mostly Cloudy 46 8 21 -6 37 37 SSE 6 9 30.33 1027 10 16.09344 0 0
9:52 pm 21:52 Mostly Cloudy 45 7 23 -5 42 42 SE 6 9 30.33 1027 10 16.09344 0 0
10:52 pm 22:52 Cloudy 45 7 21 -6 39 39 Calm 30.3 1026 10 16.09344 0 0
11:52 pm 23:52 Cloudy 45 7 23 -5 42 42 ESE 3 6 30.3 1026 10 16.09344 0 0

Powered by AerisWeather